sensor_id;sensor_type;location;lat;lon;timestamp;pressure;altitude;pressure_sealevel;temperature;humidity
39891;BME280;25564;53.312;9.790;2022-07-22T00:01:34;101016.19;;;20.04;89.49
39891;BME280;25564;53.312;9.790;2022-07-22T00:04:06;101027.13;;;20.01;88.84
39891;BME280;25564;53.312;9.790;2022-07-22T00:06:37;101010.66;;;19.89;89.15
39891;BME280;25564;53.312;9.790;2022-07-22T00:09:08;101019.28;;;19.96;89.15
39891;BME280;25564;53.312;9.790;2022-07-22T00:11:40;101020.47;;;19.90;89.64
39891;BME280;25564;53.312;9.790;2022-07-22T00:14:11;101038.16;;;19.96;89.92
39891;BME280;25564;53.312;9.790;2022-07-22T00:16:44;101026.41;;;19.97;89.93
39891;BME280;25564;53.312;9.790;2022-07-22T00:19:15;101015.09;;;19.90;89.46
39891;BME280;25564;53.312;9.790;2022-07-22T00:21:46;101028.16;;;19.98;89.51
39891;BME280;25564;53.312;9.790;2022-07-22T00:24:18;101031.97;;;19.94;89.32
39891;BME280;25564;53.312;9.790;2022-07-22T00:26:49;101036.88;;;19.86;89.21
39891;BME280;25564;53.312;9.790;2022-07-22T00:29:21;101037.59;;;19.72;89.10
39891;BME280;25564;53.312;9.790;2022-07-22T00:31:52;101043.81;;;19.55;88.57
39891;BME280;25564;53.312;9.790;2022-07-22T00:34:24;101043.81;;;19.37;88.98
39891;BME280;25564;53.312;9.790;2022-07-22T00:36:55;101058.75;;;19.25;89.01
39891;BME280;25564;53.312;9.790;2022-07-22T00:39:26;101049.59;;;19.10;88.63
39891;BME280;25564;53.312;9.790;2022-07-22T00:41:58;101049.00;;;19.04;89.34
39891;BME280;25564;53.312;9.790;2022-07-22T00:44:30;101051.19;;;18.95;88.75
39891;BME280;25564;53.312;9.790;2022-07-22T00:47:08;101057.94;;;18.85;88.88
39891;BME280;25564;53.312;9.790;2022-07-22T00:49:40;101061.91;;;18.77;88.93
39891;BME280;25564;53.312;9.790;2022-07-22T00:52:11;101055.09;;;18.70;89.06
39891;BME280;25564;53.312;9.790;2022-07-22T00:54:43;101060.75;;;18.64;88.98
39891;BME280;25564;53.312;9.790;2022-07-22T00:57:14;101061.88;;;18.58;89.50
39891;BME280;25564;53.312;9.790;2022-07-22T00:59:46;101043.59;;;18.46;89.35
39891;BME280;25564;53.312;9.790;2022-07-22T01:02:17;101061.41;;;18.48;89.23
39891;BME280;25564;53.312;9.790;2022-07-22T01:04:49;101053.97;;;18.35;89.15
39891;BME280;25564;53.312;9.790;2022-07-22T01:07:20;101063.03;;;18.32;88.96
39891;BME280;25564;53.312;9.790;2022-07-22T01:09:51;101072.38;;;18.23;89.27
39891;BME280;25564;53.312;9.790;2022-07-22T01:12:23;101068.19;;;18.16;88.94
39891;BME280;25564;53.312;9.790;2022-07-22T01:14:55;101053.69;;;18.00;88.94
39891;BME280;25564;53.312;9.790;2022-07-22T01:17:26;101057.19;;;18.02;88.51
39891;BME280;25564;53.312;9.790;2022-07-22T01:20:06;101074.16;;;18.03;89.04
39891;BME280;25564;53.312;9.790;2022-07-22T01:22:38;101076.28;;;17.94;89.00
39891;BME280;25564;53.312;9.790;2022-07-22T01:25:10;101079.03;;;17.93;89.33
39891;BME280;25564;53.312;9.790;2022-07-22T01:27:41;101081.94;;;17.88;89.20
39891;BME280;25564;53.312;9.790;2022-07-22T01:30:13;101082.06;;;17.85;89.63
39891;BME280;25564;53.312;9.790;2022-07-22T01:32:44;101072.31;;;17.83;89.32
39891;BME280;25564;53.312;9.790;2022-07-22T01:35:16;101086.56;;;17.85;89.43
39891;BME280;25564;53.312;9.790;2022-07-22T01:37:50;101086.69;;;17.82;89.68
39891;BME280;25564;53.312;9.790;2022-07-22T01:40:21;101080.63;;;17.77;89.30
39891;BME280;25564;53.312;9.790;2022-07-22T01:42:53;101095.59;;;17.82;88.90
39891;BME280;25564;53.312;9.790;2022-07-22T01:45:24;101094.72;;;17.82;89.23
39891;BME280;25564;53.312;9.790;2022-07-22T01:47:56;101099.28;;;17.80;89.24
39891;BME280;25564;53.312;9.790;2022-07-22T01:50:29;101100.41;;;17.74;88.88
39891;BME280;25564;53.312;9.790;2022-07-22T01:53:01;101091.78;;;17.68;89.20
39891;BME280;25564;53.312;9.790;2022-07-22T01:55:32;101104.31;;;17.67;89.15
39891;BME280;25564;53.312;9.790;2022-07-22T01:58:04;101101.69;;;17.66;89.25
39891;BME280;25564;53.312;9.790;2022-07-22T02:00:36;101097.19;;;17.66;89.37
39891;BME280;25564;53.312;9.790;2022-07-22T02:03:08;101092.81;;;17.63;89.44
39891;BME280;25564;53.312;9.790;2022-07-22T02:05:41;101097.28;;;17.63;89.17
39891;BME280;25564;53.312;9.790;2022-07-22T02:08:13;101092.19;;;17.57;89.16
39891;BME280;25564;53.312;9.790;2022-07-22T02:10:44;101098.72;;;17.50;89.20
39891;BME280;25564;53.312;9.790;2022-07-22T02:13:16;101106.16;;;17.43;89.13
39891;BME280;25564;53.312;9.790;2022-07-22T02:15:47;101107.19;;;17.39;89.39
39891;BME280;25564;53.312;9.790;2022-07-22T02:18:19;101114.31;;;17.40;89.55
39891;BME280;25564;53.312;9.790;2022-07-22T02:20:51;101098.63;;;17.29;89.45
39891;BME280;25564;53.312;9.790;2022-07-22T02:23:22;101119.84;;;17.36;89.61
39891;BME280;25564;53.312;9.790;2022-07-22T02:25:54;101104.88;;;17.30;89.55
39891;BME280;25564;53.312;9.790;2022-07-22T02:28:25;101109.53;;;17.25;89.18
39891;BME280;25564;53.312;9.790;2022-07-22T02:30:56;101115.59;;;17.30;89.43
39891;BME280;25564;53.312;9.790;2022-07-22T02:33:28;101112.22;;;17.25;89.42
39891;BME280;25564;53.312;9.790;2022-07-22T02:36:02;101113.09;;;17.25;89.50
39891;BME280;25564;53.312;9.790;2022-07-22T02:38:35;101101.56;;;17.23;89.67
39891;BME280;25564;53.312;9.790;2022-07-22T02:41:06;101119.34;;;17.26;89.61
39891;BME280;25564;53.312;9.790;2022-07-22T02:43:38;101124.69;;;17.26;89.82
39891;BME280;25564;53.312;9.790;2022-07-22T02:46:09;101120.28;;;17.25;89.42
39891;BME280;25564;53.312;9.790;2022-07-22T02:48:41;101130.88;;;17.28;89.95
39891;BME280;25564;53.312;9.790;2022-07-22T02:51:12;101134.38;;;17.30;90.00
39891;BME280;25564;53.312;9.790;2022-07-22T02:53:43;101129.91;;;17.30;89.88
39891;BME280;25564;53.312;9.790;2022-07-22T02:56:15;101131.59;;;17.33;89.91
39891;BME280;25564;53.312;9.790;2022-07-22T02:58:46;101134.22;;;17.35;89.80
39891;BME280;25564;53.312;9.790;2022-07-22T03:01:19;101135.94;;;17.36;89.64
39891;BME280;25564;53.312;9.790;2022-07-22T03:03:51;101134.16;;;17.36;89.58
39891;BME280;25564;53.312;9.790;2022-07-22T03:06:22;101143.94;;;17.37;89.41
39891;BME280;25564;53.312;9.790;2022-07-22T03:08:53;101137.75;;;17.35;89.46
39891;BME280;25564;53.312;9.790;2022-07-22T03:11:25;101141.38;;;17.34;89.21
39891;BME280;25564;53.312;9.790;2022-07-22T03:13:57;101145.00;;;17.33;89.40
39891;BME280;25564;53.312;9.790;2022-07-22T03:16:28;101144.19;;;17.31;89.25
39891;BME280;25564;53.312;9.790;2022-07-22T03:18:59;101144.19;;;17.31;89.45
39891;BME280;25564;53.312;9.790;2022-07-22T03:21:31;101145.22;;;17.27;89.53
39891;BME280;25564;53.312;9.790;2022-07-22T03:24:03;101147.78;;;17.30;89.35
39891;BME280;25564;53.312;9.790;2022-07-22T03:26:34;101156.84;;;17.27;89.57
39891;BME280;25564;53.312;9.790;2022-07-22T03:29:05;101151.53;;;17.26;89.32
39891;BME280;25564;53.312;9.790;2022-07-22T03:31:37;101155.84;;;17.30;89.17
39891;BME280;25564;53.312;9.790;2022-07-22T03:34:08;101150.41;;;17.31;89.25
39891;BME280;25564;53.312;9.790;2022-07-22T03:36:39;101156.53;;;17.35;89.04
39891;BME280;25564;53.312;9.790;2022-07-22T03:39:11;101142.44;;;17.30;88.85
39891;BME280;25564;53.312;9.790;2022-07-22T03:41:42;101154.03;;;17.30;88.86
39891;BME280;25564;53.312;9.790;2022-07-22T03:44:13;101151.47;;;17.27;88.92
39891;BME280;25564;53.312;9.790;2022-07-22T03:46:45;101160.50;;;17.25;88.71
39891;BME280;25564;53.312;9.790;2022-07-22T03:49:16;101161.63;;;17.19;88.68
39891;BME280;25564;53.312;9.790;2022-07-22T03:51:48;101156.31;;;17.18;88.94
39891;BME280;25564;53.312;9.790;2022-07-22T03:54:19;101158.19;;;17.16;88.75
39891;BME280;25564;53.312;9.790;2022-07-22T03:56:50;101152.09;;;17.11;88.77
39891;BME280;25564;53.312;9.790;2022-07-22T03:59:22;101160.91;;;17.14;88.96
39891;BME280;25564;53.312;9.790;2022-07-22T04:01:53;101153.84;;;17.12;88.83
39891;BME280;25564;53.312;9.790;2022-07-22T04:04:25;101162.50;;;17.20;89.01
39891;BME280;25564;53.312;9.790;2022-07-22T04:06:56;101162.38;;;17.23;88.54
39891;BME280;25564;53.312;9.790;2022-07-22T04:09:28;101161.38;;;17.25;88.57
39891;BME280;25564;53.312;9.790;2022-07-22T04:11:59;101166.81;;;17.24;88.67
39891;BME280;25564;53.312;9.790;2022-07-22T04:14:30;101150.94;;;17.18;88.54
39891;BME280;25564;53.312;9.790;2022-07-22T04:17:02;101160.50;;;17.25;88.53
39891;BME280;25564;53.312;9.790;2022-07-22T04:19:33;101158.75;;;17.24;88.15
39891;BME280;25564;53.312;9.790;2022-07-22T04:22:04;101163.25;;;17.23;88.31
39891;BME280;25564;53.312;9.790;2022-07-22T04:24:36;101165.88;;;17.25;88.34
39891;BME280;25564;53.312;9.790;2022-07-22T04:27:07;101163.13;;;17.26;88.28
39891;BME280;25564;53.312;9.790;2022-07-22T04:29:39;101164.88;;;17.27;88.33
39891;BME280;25564;53.312;9.790;2022-07-22T04:32:11;101174.50;;;17.33;88.26
39891;BME280;25564;53.312;9.790;2022-07-22T04:34:42;101179.00;;;17.32;88.01
39891;BME280;25564;53.312;9.790;2022-07-22T04:37:14;101171.88;;;17.31;87.92
39891;BME280;25564;53.312;9.790;2022-07-22T04:39:46;101175.50;;;17.30;88.12
39891;BME280;25564;53.312;9.790;2022-07-22T04:42:17;101176.25;;;17.34;88.13
39891;BME280;25564;53.312;9.790;2022-07-22T04:44:48;101176.13;;;17.37;87.98
39891;BME280;25564;53.312;9.790;2022-07-22T04:47:20;101178.81;;;17.37;87.91
39891;BME280;25564;53.312;9.790;2022-07-22T04:49:51;101175.31;;;17.35;88.09
39891;BME280;25564;53.312;9.790;2022-07-22T04:52:24;101185.75;;;17.43;87.71
39891;BME280;25564;53.312;9.790;2022-07-22T04:54:57;101183.09;;;17.43;87.78
39891;BME280;25564;53.312;9.790;2022-07-22T04:57:30;101186.63;;;17.43;87.75
39891;BME280;25564;53.312;9.790;2022-07-22T05:00:03;101186.63;;;17.43;87.60
39891;BME280;25564;53.312;9.790;2022-07-22T05:02:35;101178.75;;;17.39;87.54
39891;BME280;25564;53.312;9.790;2022-07-22T05:05:07;101191.00;;;17.46;87.55
39891;BME280;25564;53.312;9.790;2022-07-22T05:07:38;101169.19;;;17.31;87.57
39891;BME280;25564;53.312;9.790;2022-07-22T05:10:10;101186.53;;;17.46;87.64
39891;BME280;25564;53.312;9.790;2022-07-22T05:12:44;101191.06;;;17.44;87.44
39891;BME280;25564;53.312;9.790;2022-07-22T05:15:16;101177.88;;;17.38;87.21
39891;BME280;25564;53.312;9.790;2022-07-22T05:17:47;101199.34;;;17.38;87.49
39891;BME280;25564;53.312;9.790;2022-07-22T05:20:19;101191.81;;;17.24;87.41
39891;BME280;25564;53.312;9.790;2022-07-22T05:22:50;101204.59;;;17.18;87.56
39891;BME280;25564;53.312;9.790;2022-07-22T05:25:21;101203.81;;;17.14;87.66
39891;BME280;25564;53.312;9.790;2022-07-22T05:27:54;101203.06;;;17.11;88.15
39891;BME280;25564;53.312;9.790;2022-07-22T05:30:25;101200.72;;;17.02;88.15
39891;BME280;25564;53.312;9.790;2022-07-22T05:32:57;101216.69;;;17.05;88.18
39891;BME280;25564;53.312;9.790;2022-07-22T05:35:28;101206.06;;;17.02;88.19
39891;BME280;25564;53.312;9.790;2022-07-22T05:38:00;101199.94;;;16.98;87.98
39891;BME280;25564;53.312;9.790;2022-07-22T05:40:32;101187.88;;;16.86;88.04
39891;BME280;25564;53.312;9.790;2022-07-22T05:43:03;101203.69;;;16.94;88.43
39891;BME280;25564;53.312;9.790;2022-07-22T05:45:35;101198.97;;;17.00;88.40
39891;BME280;25564;53.312;9.790;2022-07-22T05:48:06;101200.38;;;17.11;88.40
39891;BME280;25564;53.312;9.790;2022-07-22T05:50:38;101175.44;;;17.09;88.42
39891;BME280;25564;53.312;9.790;2022-07-22T05:53:09;101203.13;;;17.32;88.16
39891;BME280;25564;53.312;9.790;2022-07-22T05:55:41;101206.47;;;17.39;87.63
39891;BME280;25564;53.312;9.790;2022-07-22T05:58:12;101204.72;;;17.38;87.55
39891;BME280;25564;53.312;9.790;2022-07-22T06:00:44;101207.06;;;17.47;87.37
39891;BME280;25564;53.312;9.790;2022-07-22T06:03:15;101208.38;;;17.59;87.60
39891;BME280;25564;53.312;9.790;2022-07-22T06:05:49;101196.66;;;17.61;87.43
39891;BME280;25564;53.312;9.790;2022-07-22T06:08:21;101214.97;;;17.74;87.17
39891;BME280;25564;53.312;9.790;2022-07-22T06:10:52;101210.31;;;17.79;86.92
39891;BME280;25564;53.312;9.790;2022-07-22T06:13:23;101213.06;;;17.99;87.08
39891;BME280;25564;53.312;9.790;2022-07-22T06:15:55;101214.06;;;18.18;86.79
39891;BME280;25564;53.312;9.790;2022-07-22T06:18:26;101207.19;;;18.33;86.49
39891;BME280;25564;53.312;9.790;2022-07-22T06:20:58;101212.72;;;18.50;86.39
39891;BME280;25564;53.312;9.790;2022-07-22T06:23:29;101205.88;;;18.65;86.20
39891;BME280;25564;53.312;9.790;2022-07-22T06:26:01;101218.47;;;18.83;85.55
39891;BME280;25564;53.312;9.790;2022-07-22T06:28:32;101217.94;;;18.95;85.20
39891;BME280;25564;53.312;9.790;2022-07-22T06:31:04;101207.19;;;18.95;84.95
39891;BME280;25564;53.312;9.790;2022-07-22T06:33:36;101223.19;;;18.99;84.32
39891;BME280;25564;53.312;9.790;2022-07-22T06:36:08;101225.34;;;18.90;83.77
39891;BME280;25564;53.312;9.790;2022-07-22T06:38:40;101215.13;;;18.78;84.05
39891;BME280;25564;53.312;9.790;2022-07-22T06:41:12;101223.59;;;18.69;83.85
39891;BME280;25564;53.312;9.790;2022-07-22T06:43:45;101226.66;;;18.60;83.87
39891;BME280;25564;53.312;9.790;2022-07-22T06:46:17;101219.72;;;18.54;83.75
39891;BME280;25564;53.312;9.790;2022-07-22T06:48:49;101219.66;;;18.56;84.03
39891;BME280;25564;53.312;9.790;2022-07-22T06:51:20;101208.91;;;18.56;84.05
39891;BME280;25564;53.312;9.790;2022-07-22T06:53:57;101222.19;;;18.60;84.00
39891;BME280;25564;53.312;9.790;2022-07-22T06:56:29;101217.03;;;18.54;83.87
39891;BME280;25564;53.312;9.790;2022-07-22T06:59:00;101215.75;;;18.65;84.02
39891;BME280;25564;53.312;9.790;2022-07-22T07:01:32;101224.69;;;18.65;83.98
39891;BME280;25564;53.312;9.790;2022-07-22T07:04:03;101226.50;;;18.65;83.92
39891;BME280;25564;53.312;9.790;2022-07-22T07:06:35;101230.06;;;18.65;83.75
39891;BME280;25564;53.312;9.790;2022-07-22T07:09:07;101234.69;;;18.61;83.46
39891;BME280;25564;53.312;9.790;2022-07-22T07:11:38;101229.41;;;18.58;83.33
39891;BME280;25564;53.312;9.790;2022-07-22T07:14:13;101223.34;;;18.53;83.10
39891;BME280;25564;53.312;9.790;2022-07-22T07:16:44;101234.16;;;18.52;83.05
39891;BME280;25564;53.312;9.790;2022-07-22T07:19:16;101234.44;;;18.46;83.14
39891;BME280;25564;53.312;9.790;2022-07-22T07:21:47;101233.06;;;18.36;83.29
39891;BME280;25564;53.312;9.790;2022-07-22T07:24:20;101241.19;;;18.34;82.87
39891;BME280;25564;53.312;9.790;2022-07-22T07:26:52;101228.63;;;18.35;83.32
39891;BME280;25564;53.312;9.790;2022-07-22T07:29:23;101232.25;;;18.34;84.04
39891;BME280;25564;53.312;9.790;2022-07-22T07:31:55;101242.06;;;18.35;83.22
39891;BME280;25564;53.312;9.790;2022-07-22T07:34:27;101235.88;;;18.33;83.42
39891;BME280;25564;53.312;9.790;2022-07-22T07:36:58;101238.63;;;18.31;83.66
39891;BME280;25564;53.312;9.790;2022-07-22T07:39:29;101239.56;;;18.30;83.64
39891;BME280;25564;53.312;9.790;2022-07-22T07:42:01;101236.81;;;18.32;83.51
39891;BME280;25564;53.312;9.790;2022-07-22T07:44:33;101240.25;;;18.35;83.57
39891;BME280;25564;53.312;9.790;2022-07-22T07:47:05;101245.19;;;18.46;83.61
39891;BME280;25564;53.312;9.790;2022-07-22T07:49:36;101249.56;;;18.70;83.82
39891;BME280;25564;53.312;9.790;2022-07-22T07:52:07;101240.66;;;18.88;83.84
39891;BME280;25564;53.312;9.790;2022-07-22T07:54:44;101244.16;;;19.11;83.42
39891;BME280;25564;53.312;9.790;2022-07-22T07:57:36;101233.94;;;19.19;82.93
39891;BME280;25564;53.312;9.790;2022-07-22T08:00:09;101228.06;;;19.30;81.93
39891;BME280;25564;53.312;9.790;2022-07-22T08:02:43;101244.66;;;19.39;82.09
39891;BME280;25564;53.312;9.790;2022-07-22T08:05:15;101248.22;;;19.60;82.00
39891;BME280;25564;53.312;9.790;2022-07-22T08:07:48;101244.88;;;19.74;81.13
39891;BME280;25564;53.312;9.790;2022-07-22T08:10:20;101250.75;;;19.82;80.41
39891;BME280;25564;53.312;9.790;2022-07-22T08:13:12;101261.84;;;19.76;79.38
39891;BME280;25564;53.312;9.790;2022-07-22T08:15:44;101262.06;;;19.71;80.05
39891;BME280;25564;53.312;9.790;2022-07-22T08:18:17;101264.44;;;19.77;79.44
39891;BME280;25564;53.312;9.790;2022-07-22T08:20:48;101268.09;;;19.76;79.38
39891;BME280;25564;53.312;9.790;2022-07-22T08:23:20;101274.19;;;19.80;78.92
39891;BME280;25564;53.312;9.790;2022-07-22T08:25:52;101274.34;;;19.77;78.20
39891;BME280;25564;53.312;9.790;2022-07-22T08:28:23;101267.31;;;19.74;78.33
39891;BME280;25564;53.312;9.790;2022-07-22T08:30:55;101270.78;;;19.95;77.96
39891;BME280;25564;53.312;9.790;2022-07-22T08:33:26;101259.28;;;20.10;77.79
39891;BME280;25564;53.312;9.790;2022-07-22T08:35:57;101278.91;;;20.31;76.71
39891;BME280;25564;53.312;9.790;2022-07-22T08:38:30;101268.66;;;20.39;76.68
39891;BME280;25564;53.312;9.790;2022-07-22T08:41:03;101266.38;;;20.49;76.36
39891;BME280;25564;53.312;9.790;2022-07-22T08:43:36;101269.22;;;20.46;75.31
39891;BME280;25564;53.312;9.790;2022-07-22T08:46:10;101276.28;;;20.30;74.89
39891;BME280;25564;53.312;9.790;2022-07-22T08:48:42;101287.09;;;20.11;75.15
39891;BME280;25564;53.312;9.790;2022-07-22T08:51:14;101282.88;;;20.05;75.51
39891;BME280;25564;53.312;9.790;2022-07-22T08:53:46;101277.47;;;20.05;74.94
39891;BME280;25564;53.312;9.790;2022-07-22T08:56:17;101290.22;;;20.20;75.28
39891;BME280;25564;53.312;9.790;2022-07-22T08:58:49;101280.41;;;20.38;74.62
39891;BME280;25564;53.312;9.790;2022-07-22T09:01:20;101284.94;;;20.55;74.37
39891;BME280;25564;53.312;9.790;2022-07-22T09:03:54;101278.47;;;20.59;73.15
39891;BME280;25564;53.312;9.790;2022-07-22T09:06:28;101282.59;;;20.66;73.40
39891;BME280;25564;53.312;9.790;2022-07-22T09:09:05;101278.16;;;20.65;72.44
39891;BME280;25564;53.312;9.790;2022-07-22T09:11:43;101286.31;;;20.64;72.87
39891;BME280;25564;53.312;9.790;2022-07-22T09:14:15;101288.22;;;20.62;72.03
39891;BME280;25564;53.312;9.790;2022-07-22T09:16:48;101280.22;;;20.77;72.36
39891;BME280;25564;53.312;9.790;2022-07-22T09:19:31;101278.53;;;20.92;70.29
39891;BME280;25564;53.312;9.790;2022-07-22T09:22:03;101289.09;;;20.97;70.77
39891;BME280;25564;53.312;9.790;2022-07-22T09:24:35;101272.66;;;21.01;71.19
39891;BME280;25564;53.312;9.790;2022-07-22T09:27:07;101291.63;;;21.17;69.65
39891;BME280;25564;53.312;9.790;2022-07-22T09:29:49;101280.19;;;21.12;68.34
39891;BME280;25564;53.312;9.790;2022-07-22T09:32:21;101282.75;;;21.15;69.26
39891;BME280;25564;53.312;9.790;2022-07-22T09:35:02;101283.78;;;21.12;68.29
39891;BME280;25564;53.312;9.790;2022-07-22T09:37:34;101280.47;;;21.25;68.51
39891;BME280;25564;53.312;9.790;2022-07-22T09:40:13;101282.19;;;21.43;67.49
39891;BME280;25564;53.312;9.790;2022-07-22T09:42:48;101281.13;;;21.63;67.43
39891;BME280;25564;53.312;9.790;2022-07-22T09:45:21;101288.22;;;21.81;66.72
39891;BME280;25564;53.312;9.790;2022-07-22T09:47:55;101286.31;;;21.83;65.63
39891;BME280;25564;53.312;9.790;2022-07-22T09:50:33;101288.28;;;21.79;65.11
39891;BME280;25564;53.312;9.790;2022-07-22T09:53:06;101300.47;;;21.71;64.95
39891;BME280;25564;53.312;9.790;2022-07-22T09:55:39;101288.72;;;21.72;64.68
39891;BME280;25564;53.312;9.790;2022-07-22T09:58:10;101304.69;;;21.76;64.46
39891;BME280;25564;53.312;9.790;2022-07-22T10:00:43;101296.75;;;21.73;64.48
39891;BME280;25564;53.312;9.790;2022-07-22T10:03:23;101295.06;;;21.71;63.64
39891;BME280;25564;53.312;9.790;2022-07-22T10:05:57;101302.13;;;21.89;63.87
39891;BME280;25564;53.312;9.790;2022-07-22T10:08:31;101304.13;;;22.03;63.27
39891;BME280;25564;53.312;9.790;2022-07-22T10:11:05;101305.25;;;22.14;62.83
39891;BME280;25564;53.312;9.790;2022-07-22T10:13:37;101310.22;;;22.38;63.01
39891;BME280;25564;53.312;9.790;2022-07-22T10:16:09;101310.38;;;22.66;62.32
39891;BME280;25564;53.312;9.790;2022-07-22T10:18:46;101310.91;;;22.73;61.16
39891;BME280;25564;53.312;9.790;2022-07-22T10:21:17;101299.75;;;22.63;60.99
39891;BME280;25564;53.312;9.790;2022-07-22T10:24:10;101293.91;;;22.55;61.01
39891;BME280;25564;53.312;9.790;2022-07-22T10:26:53;101303.59;;;22.59;61.52
39891;BME280;25564;53.312;9.790;2022-07-22T10:45:40;101315.72;;;22.36;59.54
39891;BME280;25564;53.312;9.790;2022-07-22T10:48:17;101305.88;;;22.19;59.43
39891;BME280;25564;53.312;9.790;2022-07-22T10:56:30;101309.88;;;22.12;58.94
39891;BME280;25564;53.312;9.790;2022-07-22T11:01:44;101313.03;;;22.52;58.80
39891;BME280;25564;53.312;9.790;2022-07-22T11:04:20;101308.47;;;22.52;58.38
39891;BME280;25564;53.312;9.790;2022-07-22T11:06:54;101309.88;;;22.44;59.25
39891;BME280;25564;53.312;9.790;2022-07-22T11:09:33;101313.91;;;22.37;58.20
39891;BME280;25564;53.312;9.790;2022-07-22T11:12:12;101314.59;;;22.25;57.36
39891;BME280;25564;53.312;9.790;2022-07-22T11:14:44;101311.38;;;22.18;57.73
39891;BME280;25564;53.312;9.790;2022-07-22T11:17:15;101318.78;;;22.30;57.69
39891;BME280;25564;53.312;9.790;2022-07-22T11:19:50;101306.41;;;22.26;57.29
39891;BME280;25564;53.312;9.790;2022-07-22T11:22:22;101313.38;;;22.14;57.63
39891;BME280;25564;53.312;9.790;2022-07-22T11:24:53;101313.97;;;22.19;57.87
39891;BME280;25564;53.312;9.790;2022-07-22T11:27:25;101317.28;;;22.25;57.62
39891;BME280;25564;53.312;9.790;2022-07-22T11:29:56;101319.22;;;22.23;57.51
39891;BME280;25564;53.312;9.790;2022-07-22T11:32:29;101322.97;;;22.36;57.40
39891;BME280;25564;53.312;9.790;2022-07-22T11:35:02;101326.72;;;22.49;57.14
39891;BME280;25564;53.312;9.790;2022-07-22T11:37:34;101313.97;;;22.51;56.56
39891;BME280;25564;53.312;9.790;2022-07-22T11:40:07;101305.16;;;22.63;56.95
39891;BME280;25564;53.312;9.790;2022-07-22T11:42:39;101304.88;;;22.83;56.68
39891;BME280;25564;53.312;9.790;2022-07-22T11:45:10;101298.75;;;23.10;56.15
39891;BME280;25564;53.312;9.790;2022-07-22T11:47:51;101293.03;;;23.44;55.28
39891;BME280;25564;53.312;9.790;2022-07-22T11:50:32;101295.50;;;23.77;54.54
39891;BME280;25564;53.312;9.790;2022-07-22T11:53:03;101295.50;;;23.77;54.57
39891;BME280;25564;53.312;9.790;2022-07-22T11:55:36;101298.31;;;23.76;54.53
39891;BME280;25564;53.312;9.790;2022-07-22T11:58:07;101292.09;;;23.88;54.98
39891;BME280;25564;53.312;9.790;2022-07-22T12:00:39;101278.44;;;23.90;54.38
39891;BME280;25564;53.312;9.790;2022-07-22T12:03:10;101293.50;;;23.94;54.63
39891;BME280;25564;53.312;9.790;2022-07-22T12:05:42;101291.84;;;24.20;54.26
39891;BME280;25564;53.312;9.790;2022-07-22T12:08:14;101290.00;;;24.34;53.86
39891;BME280;25564;53.312;9.790;2022-07-22T12:10:45;101290.47;;;24.41;53.83
39891;BME280;25564;53.312;9.790;2022-07-22T12:13:17;101284.09;;;24.28;53.20
39891;BME280;25564;53.312;9.790;2022-07-22T12:15:48;101291.38;;;24.13;53.10
39891;BME280;25564;53.312;9.790;2022-07-22T12:18:21;101289.94;;;23.93;53.19
39891;BME280;25564;53.312;9.790;2022-07-22T12:20:55;101294.72;;;23.75;52.74
39891;BME280;25564;53.312;9.790;2022-07-22T12:23:27;101287.69;;;23.43;53.29
39891;BME280;25564;53.312;9.790;2022-07-22T12:26:00;101291.25;;;23.29;53.54
39891;BME280;25564;53.312;9.790;2022-07-22T12:28:32;101291.84;;;23.34;53.54
39891;BME280;25564;53.312;9.790;2022-07-22T12:31:03;101290.50;;;23.41;53.70
39891;BME280;25564;53.312;9.790;2022-07-22T12:33:36;101291.28;;;23.43;53.50
39891;BME280;25564;53.312;9.790;2022-07-22T12:36:07;101288.97;;;23.52;54.01
39891;BME280;25564;53.312;9.790;2022-07-22T12:38:39;101294.03;;;23.72;53.79
39891;BME280;25564;53.312;9.790;2022-07-22T12:41:24;101287.66;;;23.87;52.98
39891;BME280;25564;53.312;9.790;2022-07-22T12:43:56;101290.47;;;23.86;52.87
39891;BME280;25564;53.312;9.790;2022-07-22T12:46:28;101288.13;;;23.79;53.06
39891;BME280;25564;53.312;9.790;2022-07-22T12:49:00;101288.81;;;23.83;52.89
39891;BME280;25564;53.312;9.790;2022-07-22T12:51:32;101286.97;;;23.84;53.12
39891;BME280;25564;53.312;9.790;2022-07-22T12:54:03;101279.81;;;23.83;52.56
39891;BME280;25564;53.312;9.790;2022-07-22T12:56:35;101273.91;;;23.90;52.99
39891;BME280;25564;53.312;9.790;2022-07-22T12:59:08;101274.97;;;23.88;52.63
39891;BME280;25564;53.312;9.790;2022-07-22T13:01:39;101267.19;;;23.96;53.12
39891;BME280;25564;53.312;9.790;2022-07-22T13:04:11;101268.09;;;23.82;53.01
39891;BME280;25564;53.312;9.790;2022-07-22T13:06:42;101279.13;;;23.65;52.45
39891;BME280;25564;53.312;9.790;2022-07-22T13:09:14;101260.22;;;23.49;52.96
39891;BME280;25564;53.312;9.790;2022-07-22T13:11:48;101275.72;;;23.47;53.00
39891;BME280;25564;53.312;9.790;2022-07-22T13:14:20;101276.97;;;23.41;53.18
39891;BME280;25564;53.312;9.790;2022-07-22T13:16:52;101276.97;;;23.41;53.87
39891;BME280;25564;53.312;9.790;2022-07-22T13:19:23;101269.03;;;23.53;53.91
39891;BME280;25564;53.312;9.790;2022-07-22T13:21:54;101267.63;;;23.61;53.55
39891;BME280;25564;53.312;9.790;2022-07-22T13:24:26;101256.88;;;23.60;53.15
39891;BME280;25564;53.312;9.790;2022-07-22T13:26:57;101261.00;;;23.51;52.92
39891;BME280;25564;53.312;9.790;2022-07-22T13:29:28;101270.81;;;23.54;53.01
39891;BME280;25564;53.312;9.790;2022-07-22T13:32:00;101264.00;;;23.46;52.88
39891;BME280;25564;53.312;9.790;2022-07-22T13:34:51;101256.63;;;23.34;53.34
39891;BME280;25564;53.312;9.790;2022-07-22T13:37:23;101264.75;;;23.34;53.52
39891;BME280;25564;53.312;9.790;2022-07-22T13:39:54;101264.19;;;23.43;53.34
39891;BME280;25564;53.312;9.790;2022-07-22T13:42:26;101269.31;;;23.34;52.32